Webcam Flughafen St.Gallen-Altenrhein

Live-Bilder und Zeitraffer LSZR / ACH.

 

Live aus Altenrhein
LIVE
LSZR 010050Z AUTO VRB02KT CAVOK M00/M00 Q1031
Zeitraffer heute
2021-03-01 00:14:30
LSZR 282250Z AUTO 18001KT CAVOK 01/01 Q1030